sensor_id;sensor_type;location;lat;lon;timestamp;pressure;altitude;pressure_sealevel;temperature;humidity
13836;BME280;6988;52.614;13.500;2023-05-21T00:01:32;54188.19;;;-143.77;78.50
13836;BME280;6988;52.614;13.500;2023-05-21T00:06:24;54194.34;;;-143.77;78.54
13836;BME280;6988;52.614;13.500;2023-05-21T00:11:17;54179.97;;;-143.77;78.71
13836;BME280;6988;52.614;13.500;2023-05-21T00:16:08;54225.13;;;-143.77;79.05
13836;BME280;6988;52.614;13.500;2023-05-21T00:21:02;54196.41;;;-143.77;79.20
13836;BME280;6988;52.614;13.500;2023-05-21T00:25:54;54167.66;;;-143.77;79.29
13836;BME280;6988;52.614;13.500;2023-05-21T00:30:46;54202.56;;;-143.77;79.30
13836;BME280;6988;52.614;13.500;2023-05-21T00:35:38;54163.56;;;-143.77;79.68
13836;BME280;6988;52.614;13.500;2023-05-21T00:40:32;54194.34;;;-143.77;80.13
13836;BME280;6988;52.614;13.500;2023-05-21T00:45:24;54179.97;;;-143.77;80.08
13836;BME280;6988;52.614;13.500;2023-05-21T00:50:17;54198.44;;;-143.77;80.13
13836;BME280;6988;52.614;13.500;2023-05-21T00:55:09;54194.34;;;-143.77;80.30
13836;BME280;6988;52.614;13.500;2023-05-21T01:00:05;54196.41;;;-143.77;80.57
13836;BME280;6988;52.614;13.500;2023-05-21T01:04:58;54184.09;;;-143.77;80.63
13836;BME280;6988;52.614;13.500;2023-05-21T01:09:51;54182.03;;;-143.77;80.78
13836;BME280;6988;52.614;13.500;2023-05-21T01:14:44;54196.41;;;-143.77;80.90
13836;BME280;6988;52.614;13.500;2023-05-21T01:19:37;54179.97;;;-143.77;80.97
13836;BME280;6988;52.614;13.500;2023-05-21T01:29:30;54204.59;;;-143.77;81.57
13836;BME280;6988;52.614;13.500;2023-05-21T01:34:31;54202.56;;;-143.77;81.98
13836;BME280;6988;52.614;13.500;2023-05-21T01:39:28;54184.09;;;-143.77;82.34
13836;BME280;6988;52.614;13.500;2023-05-21T01:44:24;54210.75;;;-143.77;81.98
13836;BME280;6988;52.614;13.500;2023-05-21T01:49:19;54202.56;;;-143.77;81.67
13836;BME280;6988;52.614;13.500;2023-05-21T01:54:12;54221.03;;;-143.77;81.81
13836;BME280;6988;52.614;13.500;2023-05-21T01:59:04;54216.91;;;-143.77;83.10
13836;BME280;6988;52.614;13.500;2023-05-21T02:03:56;54196.41;;;-143.77;83.76
13836;BME280;6988;52.614;13.500;2023-05-21T02:08:50;54186.13;;;-143.77;83.93
13836;BME280;6988;52.614;13.500;2023-05-21T02:13:42;54192.28;;;-143.77;84.71
13836;BME280;6988;52.614;13.500;2023-05-21T02:18:35;54221.03;;;-143.77;85.24
13836;BME280;6988;52.614;13.500;2023-05-21T02:23:27;54223.06;;;-143.77;85.15
13836;BME280;6988;52.614;13.500;2023-05-21T02:28:21;54208.72;;;-143.77;85.52
13836;BME280;6988;52.614;13.500;2023-05-21T02:33:15;54212.81;;;-143.77;85.79
13836;BME280;6988;52.614;13.500;2023-05-21T02:38:07;54186.13;;;-143.77;85.64
13836;BME280;6988;52.614;13.500;2023-05-21T02:43:00;54200.50;;;-143.77;86.03
13836;BME280;6988;52.614;13.500;2023-05-21T02:47:55;54239.47;;;-143.77;85.72
13836;BME280;6988;52.614;13.500;2023-05-21T02:52:48;54231.28;;;-143.77;85.47
13836;BME280;6988;52.614;13.500;2023-05-21T02:57:40;54188.19;;;-143.77;85.09
13836;BME280;6988;52.614;13.500;2023-05-21T03:02:31;54188.19;;;-143.77;84.85
13836;BME280;6988;52.614;13.500;2023-05-21T03:07:25;54206.66;;;-143.77;85.38
13836;BME280;6988;52.614;13.500;2023-05-21T03:12:17;54188.19;;;-143.77;85.37
13836;BME280;6988;52.614;13.500;2023-05-21T03:17:09;54208.72;;;-143.77;85.49
13836;BME280;6988;52.614;13.500;2023-05-21T03:22:03;54208.72;;;-143.77;85.94
13836;BME280;6988;52.614;13.500;2023-05-21T03:27:01;54202.56;;;-143.77;85.67
13836;BME280;6988;52.614;13.500;2023-05-21T03:31:54;54231.28;;;-143.77;85.40
13836;BME280;6988;52.614;13.500;2023-05-21T03:36:47;54204.59;;;-143.77;85.66
13836;BME280;6988;52.614;13.500;2023-05-21T03:41:42;54210.75;;;-143.77;86.05
13836;BME280;6988;52.614;13.500;2023-05-21T03:46:41;54206.66;;;-143.77;86.58
13836;BME280;6988;52.614;13.500;2023-05-21T03:51:42;54206.66;;;-143.77;86.89
13836;BME280;6988;52.614;13.500;2023-05-21T03:56:38;54190.25;;;-143.77;86.75
13836;BME280;6988;52.614;13.500;2023-05-21T04:01:30;54200.50;;;-143.77;86.83
13836;BME280;6988;52.614;13.500;2023-05-21T04:06:25;54188.19;;;-143.77;86.77
13836;BME280;6988;52.614;13.500;2023-05-21T04:11:17;54216.91;;;-143.77;86.87
13836;BME280;6988;52.614;13.500;2023-05-21T04:16:09;54202.56;;;-143.77;86.86
13836;BME280;6988;52.614;13.500;2023-05-21T04:21:04;54182.03;;;-143.77;86.91
13836;BME280;6988;52.614;13.500;2023-05-21T04:25:58;54151.25;;;-143.77;87.26
13836;BME280;6988;52.614;13.500;2023-05-21T04:30:53;54157.41;;;-143.77;87.11
13836;BME280;6988;52.614;13.500;2023-05-21T04:35:46;54167.66;;;-143.77;86.99
13836;BME280;6988;52.614;13.500;2023-05-21T04:40:39;54159.47;;;-143.77;86.16
13836;BME280;6988;52.614;13.500;2023-05-21T04:45:33;54151.25;;;-143.77;85.49
13836;BME280;6988;52.614;13.500;2023-05-21T04:50:25;54143.06;;;-143.77;84.71
13836;BME280;6988;52.614;13.500;2023-05-21T04:55:20;54112.28;;;-143.77;84.60
13836;BME280;6988;52.614;13.500;2023-05-21T05:00:13;54081.50;;;-143.77;83.55
13836;BME280;6988;52.614;13.500;2023-05-21T05:05:09;54054.81;;;-143.77;82.54
13836;BME280;6988;52.614;13.500;2023-05-21T05:10:01;54058.94;;;-143.77;82.36
13836;BME280;6988;52.614;13.500;2023-05-21T05:14:55;54065.09;;;-143.77;82.18
13836;BME280;6988;52.614;13.500;2023-05-21T05:19:47;54058.94;;;-143.77;81.61
13836;BME280;6988;52.614;13.500;2023-05-21T05:24:41;54044.56;;;-143.77;80.12
13836;BME280;6988;52.614;13.500;2023-05-21T05:29:32;54032.25;;;-143.77;78.76
13836;BME280;6988;52.614;13.500;2023-05-21T05:34:24;54081.50;;;-143.77;76.50
13836;BME280;6988;52.614;13.500;2023-05-21T05:39:16;53944.03;;;-143.77;76.01
13836;BME280;6988;52.614;13.500;2023-05-21T05:44:11;53954.28;;;-143.77;75.51
13836;BME280;6988;52.614;13.500;2023-05-21T05:49:03;53946.09;;;-143.77;75.37
13836;BME280;6988;52.614;13.500;2023-05-21T05:53:55;53948.13;;;-143.77;72.83
13836;BME280;6988;52.614;13.500;2023-05-21T05:58:47;53956.34;;;-143.77;71.23
13836;BME280;6988;52.614;13.500;2023-05-21T06:03:43;53925.56;;;-143.77;71.39
13836;BME280;6988;52.614;13.500;2023-05-21T06:08:38;53886.59;;;-143.77;70.69
13836;BME280;6988;52.614;13.500;2023-05-21T06:18:30;53888.63;;;-143.77;69.65
13836;BME280;6988;52.614;13.500;2023-05-21T06:23:23;53851.72;;;-143.77;69.15
13836;BME280;6988;52.614;13.500;2023-05-21T06:28:17;53839.41;;;-143.77;68.12
13836;BME280;6988;52.614;13.500;2023-05-21T06:33:09;53847.59;;;-143.77;67.82
13836;BME280;6988;52.614;13.500;2023-05-21T06:38:01;53855.81;;;-143.77;68.18
13836;BME280;6988;52.614;13.500;2023-05-21T06:42:54;53861.97;;;-143.77;67.17
13836;BME280;6988;52.614;13.500;2023-05-21T06:48:05;53837.34;;;-143.77;67.70
13836;BME280;6988;52.614;13.500;2023-05-21T06:52:59;53876.34;;;-143.77;66.90
13836;BME280;6988;52.614;13.500;2023-05-21T06:57:54;53798.38;;;-143.77;67.61
13836;BME280;6988;52.614;13.500;2023-05-21T07:02:46;53831.19;;;-143.77;66.89
13836;BME280;6988;52.614;13.500;2023-05-21T07:07:38;53810.69;;;-143.77;66.23
13836;BME280;6988;52.614;13.500;2023-05-21T07:12:30;53751.19;;;-143.77;64.94
13836;BME280;6988;52.614;13.500;2023-05-21T07:17:24;53751.19;;;-143.77;63.69
13836;BME280;6988;52.614;13.500;2023-05-21T07:22:16;53753.25;;;-143.77;63.63
13836;BME280;6988;52.614;13.500;2023-05-21T07:27:08;53771.69;;;-143.77;63.58
13836;BME280;6988;52.614;13.500;2023-05-21T07:32:01;53759.41;;;-143.77;64.70
13836;BME280;6988;52.614;13.500;2023-05-21T07:36:54;53749.13;;;-143.77;63.23
13836;BME280;6988;52.614;13.500;2023-05-21T07:41:46;53728.63;;;-143.77;62.75
13836;BME280;6988;52.614;13.500;2023-05-21T07:46:39;53732.72;;;-143.77;62.87
13836;BME280;6988;52.614;13.500;2023-05-21T07:51:32;53738.88;;;-143.77;62.17
13836;BME280;6988;52.614;13.500;2023-05-21T07:56:25;53593.22;;;-143.77;62.03
13836;BME280;6988;52.614;13.500;2023-05-21T08:01:18;53578.84;;;-143.77;60.77
13836;BME280;6988;52.614;13.500;2023-05-21T08:06:11;53531.69;;;-143.77;58.17
13836;BME280;6988;52.614;13.500;2023-05-21T08:11:04;53498.84;;;-143.77;56.92
13836;BME280;6988;52.614;13.500;2023-05-21T08:15:59;53468.09;;;-143.77;55.53
13836;BME280;6988;52.614;13.500;2023-05-21T08:20:51;53439.38;;;-143.77;54.28
13836;BME280;6988;52.614;13.500;2023-05-21T08:25:45;53394.22;;;-143.77;52.89
13836;BME280;6988;52.614;13.500;2023-05-21T08:30:37;53396.28;;;-143.77;53.89
13836;BME280;6988;52.614;13.500;2023-05-21T08:35:30;53422.94;;;-143.77;52.33
13836;BME280;6988;52.614;13.500;2023-05-21T08:40:34;53379.88;;;-143.77;51.67
13836;BME280;6988;52.614;13.500;2023-05-21T08:45:30;53404.50;;;-143.77;51.90
13836;BME280;6988;52.614;13.500;2023-05-21T08:50:29;53347.06;;;-143.77;50.98
13836;BME280;6988;52.614;13.500;2023-05-21T08:55:25;53318.34;;;-143.77;48.80
13836;BME280;6988;52.614;13.500;2023-05-21T09:00:18;53316.28;;;-143.77;46.75
13836;BME280;6988;52.614;13.500;2023-05-21T09:05:13;53308.06;;;-143.77;46.36
13836;BME280;6988;52.614;13.500;2023-05-21T09:10:12;53295.78;;;-143.77;47.15
13836;BME280;6988;52.614;13.500;2023-05-21T09:15:07;53383.97;;;-143.77;45.76
13836;BME280;6988;52.614;13.500;2023-05-21T09:20:07;53388.06;;;-143.77;45.84
13836;BME280;6988;52.614;13.500;2023-05-21T09:25:09;53324.50;;;-143.77;46.38
13836;BME280;6988;52.614;13.500;2023-05-21T09:30:02;53334.75;;;-143.77;45.93
13836;BME280;6988;52.614;13.500;2023-05-21T09:34:55;53379.88;;;-143.77;45.85
13836;BME280;6988;52.614;13.500;2023-05-21T09:39:47;53361.41;;;-143.77;45.99
13836;BME280;6988;52.614;13.500;2023-05-21T09:44:42;53349.09;;;-143.77;45.24
13836;BME280;6988;52.614;13.500;2023-05-21T09:49:36;53347.06;;;-143.77;44.52
13836;BME280;6988;52.614;13.500;2023-05-21T09:54:31;53371.66;;;-143.77;45.07
13836;BME280;6988;52.614;13.500;2023-05-21T09:59:24;53322.44;;;-143.77;45.91
13836;BME280;6988;52.614;13.500;2023-05-21T10:04:28;53283.47;;;-143.77;44.58
13836;BME280;6988;52.614;13.500;2023-05-21T10:09:22;53236.28;;;-143.77;43.78
13836;BME280;6988;52.614;13.500;2023-05-21T10:14:19;53240.38;;;-143.77;44.64
13836;BME280;6988;52.614;13.500;2023-05-21T10:19:13;53191.16;;;-143.77;44.05
13836;BME280;6988;52.614;13.500;2023-05-21T10:24:08;53201.41;;;-143.77;43.43
13836;BME280;6988;52.614;13.500;2023-05-21T10:29:01;53180.91;;;-143.77;42.21
13836;BME280;6988;52.614;13.500;2023-05-21T10:33:54;53152.19;;;-143.77;42.82
13836;BME280;6988;52.614;13.500;2023-05-21T10:38:47;53133.72;;;-143.77;42.12
13836;BME280;6988;52.614;13.500;2023-05-21T10:43:55;53078.34;;;-143.77;41.45
13836;BME280;6988;52.614;13.500;2023-05-21T10:49:14;53088.59;;;-143.77;41.02
13836;BME280;6988;52.614;13.500;2023-05-21T10:54:47;53137.81;;;-143.77;41.16
13836;BME280;6988;52.614;13.500;2023-05-21T10:59:46;53109.09;;;-143.77;40.53
13836;BME280;6988;52.614;13.500;2023-05-21T11:04:39;53131.66;;;-143.77;40.55
13836;BME280;6988;52.614;13.500;2023-05-21T11:09:34;53205.50;;;-143.77;40.93
13836;BME280;6988;52.614;13.500;2023-05-21T11:14:31;53162.44;;;-143.77;41.04
13836;BME280;6988;52.614;13.500;2023-05-21T11:19:35;53232.19;;;-143.77;40.38
13836;BME280;6988;52.614;13.500;2023-05-21T11:24:32;53281.41;;;-143.77;41.27
13836;BME280;6988;52.614;13.500;2023-05-21T11:29:35;53306.03;;;-143.77;40.93
13836;BME280;6988;52.614;13.500;2023-05-21T11:34:39;53322.44;;;-143.77;40.49
13836;BME280;6988;52.614;13.500;2023-05-21T11:39:38;53269.09;;;-143.77;40.14
13836;BME280;6988;52.614;13.500;2023-05-21T11:44:38;53168.59;;;-143.77;39.74
13836;BME280;6988;52.614;13.500;2023-05-21T11:49:30;53063.97;;;-143.77;39.39
13836;BME280;6988;52.614;13.500;2023-05-21T11:54:27;53072.19;;;-143.77;39.39
13836;BME280;6988;52.614;13.500;2023-05-21T11:59:24;53063.97;;;-143.77;37.40
13836;BME280;6988;52.614;13.500;2023-05-21T12:04:16;53094.75;;;-143.77;38.49
13836;BME280;6988;52.614;13.500;2023-05-21T12:09:08;53141.91;;;-143.77;38.54
13836;BME280;6988;52.614;13.500;2023-05-21T12:14:02;53143.97;;;-143.77;39.07
13836;BME280;6988;52.614;13.500;2023-05-21T12:18:53;53129.63;;;-143.77;38.51
13836;BME280;6988;52.614;13.500;2023-05-21T12:23:45;53074.22;;;-143.77;37.57
13836;BME280;6988;52.614;13.500;2023-05-21T12:28:38;53061.94;;;-143.77;38.29
13836;BME280;6988;52.614;13.500;2023-05-21T12:33:34;53084.50;;;-143.77;37.46
13836;BME280;6988;52.614;13.500;2023-05-21T12:38:29;53137.81;;;-143.77;38.15
13836;BME280;6988;52.614;13.500;2023-05-21T12:43:21;53162.44;;;-143.77;38.40
13836;BME280;6988;52.614;13.500;2023-05-21T12:48:13;53129.63;;;-143.77;37.52
13836;BME280;6988;52.614;13.500;2023-05-21T12:53:08;53045.50;;;-143.77;36.75
13836;BME280;6988;52.614;13.500;2023-05-21T12:58:02;53045.50;;;-143.77;36.89
13836;BME280;6988;52.614;13.500;2023-05-21T13:02:58;53178.84;;;-143.77;36.54
13836;BME280;6988;52.614;13.500;2023-05-21T13:07:51;53250.63;;;-143.77;37.57
13836;BME280;6988;52.614;13.500;2023-05-21T13:12:44;53279.34;;;-143.77;37.87
13836;BME280;6988;52.614;13.500;2023-05-21T13:17:36;53166.53;;;-143.77;38.36
13836;BME280;6988;52.614;13.500;2023-05-21T13:22:28;53162.44;;;-143.77;37.58
13836;BME280;6988;52.614;13.500;2023-05-21T13:27:20;53115.25;;;-143.77;38.05
13836;BME280;6988;52.614;13.500;2023-05-21T13:32:13;53066.03;;;-143.77;37.16
13836;BME280;6988;52.614;13.500;2023-05-21T13:37:05;53055.78;;;-143.77;36.61
13836;BME280;6988;52.614;13.500;2023-05-21T13:41:57;53068.09;;;-143.77;36.93
13836;BME280;6988;52.614;13.500;2023-05-21T13:46:49;53072.19;;;-143.77;36.50
13836;BME280;6988;52.614;13.500;2023-05-21T13:51:42;53088.59;;;-143.77;36.43
13836;BME280;6988;52.614;13.500;2023-05-21T13:56:34;53094.75;;;-143.77;36.32
13836;BME280;6988;52.614;13.500;2023-05-21T14:01:26;53236.28;;;-143.77;36.42
13836;BME280;6988;52.614;13.500;2023-05-21T14:06:18;53260.91;;;-143.77;36.67
13836;BME280;6988;52.614;13.500;2023-05-21T14:16:11;53228.06;;;-143.77;37.60
13836;BME280;6988;52.614;13.500;2023-05-21T14:21:03;53191.16;;;-143.77;37.35
13836;BME280;6988;52.614;13.500;2023-05-21T14:25:55;53213.72;;;-143.77;37.35
13836;BME280;6988;52.614;13.500;2023-05-21T14:30:48;53223.97;;;-143.77;37.60
13836;BME280;6988;52.614;13.500;2023-05-21T14:35:41;53273.19;;;-143.77;37.73
13836;BME280;6988;52.614;13.500;2023-05-21T14:40:33;53306.03;;;-143.77;38.05
13836;BME280;6988;52.614;13.500;2023-05-21T14:45:25;53301.91;;;-143.77;38.03
13836;BME280;6988;52.614;13.500;2023-05-21T14:50:17;53308.06;;;-143.77;38.46
13836;BME280;6988;52.614;13.500;2023-05-21T14:55:11;53308.06;;;-143.77;38.48
13836;BME280;6988;52.614;13.500;2023-05-21T15:00:05;53306.03;;;-143.77;39.03
13836;BME280;6988;52.614;13.500;2023-05-21T15:04:57;53310.13;;;-143.77;38.94
13836;BME280;6988;52.614;13.500;2023-05-21T15:09:50;53320.38;;;-143.77;39.22
13836;BME280;6988;52.614;13.500;2023-05-21T15:14:43;53322.44;;;-143.77;39.54
13836;BME280;6988;52.614;13.500;2023-05-21T15:19:34;53314.22;;;-143.77;39.01
13836;BME280;6988;52.614;13.500;2023-05-21T15:24:26;53279.34;;;-143.77;38.58
13836;BME280;6988;52.614;13.500;2023-05-21T15:29:18;53299.88;;;-143.77;39.27
13836;BME280;6988;52.614;13.500;2023-05-21T15:34:12;53293.72;;;-143.77;39.06
13836;BME280;6988;52.614;13.500;2023-05-21T15:39:04;53318.34;;;-143.77;38.22
13836;BME280;6988;52.614;13.500;2023-05-21T15:43:56;53340.91;;;-143.77;38.67
13836;BME280;6988;52.614;13.500;2023-05-21T15:48:47;53332.69;;;-143.77;39.27
13836;BME280;6988;52.614;13.500;2023-05-21T15:53:41;53383.97;;;-143.77;39.05
13836;BME280;6988;52.614;13.500;2023-05-21T15:58:32;53404.50;;;-143.77;39.41
13836;BME280;6988;52.614;13.500;2023-05-21T16:03:24;53359.34;;;-143.77;39.76
13836;BME280;6988;52.614;13.500;2023-05-21T22:04:27;53843.50;;;-143.77;55.06
13836;BME280;6988;52.614;13.500;2023-05-21T22:09:19;53859.91;;;-143.77;54.20
13836;BME280;6988;52.614;13.500;2023-05-21T22:14:12;53839.41;;;-143.77;53.72
13836;BME280;6988;52.614;13.500;2023-05-21T22:19:04;53853.75;;;-143.77;53.93
13836;BME280;6988;52.614;13.500;2023-05-21T22:23:57;53868.13;;;-143.77;54.02
13836;BME280;6988;52.614;13.500;2023-05-21T22:28:49;53868.13;;;-143.77;53.45
13836;BME280;6988;52.614;13.500;2023-05-21T22:33:41;53841.44;;;-143.77;52.58
13836;BME280;6988;52.614;13.500;2023-05-21T22:38:33;53831.19;;;-143.77;52.26
13836;BME280;6988;52.614;13.500;2023-05-21T22:43:27;53837.34;;;-143.77;52.13
13836;BME280;6988;52.614;13.500;2023-05-21T22:48:19;53833.25;;;-143.77;51.66
13836;BME280;6988;52.614;13.500;2023-05-21T22:53:12;53857.88;;;-143.77;51.25
13836;BME280;6988;52.614;13.500;2023-05-21T22:58:04;53818.88;;;-143.77;50.78
13836;BME280;6988;52.614;13.500;2023-05-21T23:02:57;53829.16;;;-143.77;50.87
13836;BME280;6988;52.614;13.500;2023-05-21T23:07:51;53835.31;;;-143.77;50.57
13836;BME280;6988;52.614;13.500;2023-05-21T23:12:43;53839.41;;;-143.77;51.52
13836;BME280;6988;52.614;13.500;2023-05-21T23:17:35;53872.22;;;-143.77;52.13
13836;BME280;6988;52.614;13.500;2023-05-21T23:22:28;53855.81;;;-143.77;51.94
13836;BME280;6988;52.614;13.500;2023-05-21T23:27:21;53876.34;;;-143.77;52.28
13836;BME280;6988;52.614;13.500;2023-05-21T23:32:13;53851.72;;;-143.77;52.73
13836;BME280;6988;52.614;13.500;2023-05-21T23:37:05;53845.56;;;-143.77;53.34
13836;BME280;6988;52.614;13.500;2023-05-21T23:41:58;53900.94;;;-143.77;53.55
13836;BME280;6988;52.614;13.500;2023-05-21T23:46:50;53853.75;;;-143.77;53.63
13836;BME280;6988;52.614;13.500;2023-05-21T23:51:42;53880.44;;;-143.77;54.58
13836;BME280;6988;52.614;13.500;2023-05-21T23:56:34;53859.91;;;-143.77;54.38
